Terminal Aerodrome Forecast
Issued by NWS Mt. Holly, NJ

Current Version | Previous Version | Text Only | Print | Product List | Glossary On
Versions: 1 2 3 4 5 6 7 8 9 10 11 12 13 14 15 16 17 18 19 20 21 22
000
FTUS41 KPHI 222041 AAA
TAFPHL
TAF AMD
KPHL 222041Z 2221/2324 16005KT P6SM SCT250
     FM230900 VRB03KT 2SM BR BKN007
     FM231400 16005KT P6SM BKN020
     FM231600 16007KT P6SM BKN035=

USA.gov is the U.S. government's official web portal to all federal, state and local government web resources and services.